createdAt,value
2022-10-28T00:02:24.393Z,19.15
2022-10-28T00:07:30.773Z,19.15
2022-10-28T00:12:36.518Z,17.27
2022-10-28T00:17:40.468Z,14.93
2022-10-28T00:22:45.858Z,18.38
2022-10-28T00:27:49.740Z,17.90
2022-10-28T00:32:54.043Z,17.08
2022-10-28T00:37:59.692Z,15.95
2022-10-28T00:43:03.798Z,15.95
2022-10-28T00:48:08.008Z,15.68
2022-10-28T00:53:17.195Z,16.42
2022-10-28T00:58:24.260Z,17.10
2022-10-28T01:03:28.194Z,17.25
2022-10-28T01:08:34.038Z,14.85
2022-10-28T01:13:48.072Z,16.98
2022-10-28T01:19:07.685Z,14.80
2022-10-28T01:24:30.227Z,14.07
2022-10-28T01:30:07.298Z,13.77
2022-10-28T01:35:20.279Z,14.43
2022-10-28T01:40:33.241Z,14.30
2022-10-28T01:45:43.733Z,16.10
2022-10-28T01:50:57.968Z,14.43
2022-10-28T01:56:07.425Z,14.32
2022-10-28T02:01:12.513Z,15.80
2022-10-28T02:06:21.831Z,14.47
2022-10-28T02:11:36.399Z,16.38
2022-10-28T02:16:48.356Z,14.18
2022-10-28T02:22:05.718Z,17.02
2022-10-28T02:27:17.599Z,15.00
2022-10-28T02:32:26.132Z,14.05
2022-10-28T02:37:34.881Z,13.50
2022-10-28T02:42:46.785Z,14.35
2022-10-28T02:47:56.675Z,14.98
2022-10-28T02:53:06.707Z,15.15
2022-10-28T02:58:11.698Z,14.80
2022-10-28T03:03:15.738Z,14.93
2022-10-28T03:08:21.072Z,14.05
2022-10-28T03:13:25.130Z,14.02
2022-10-28T03:18:31.938Z,13.50
2022-10-28T03:23:37.139Z,12.98
2022-10-28T03:28:41.201Z,12.27
2022-10-28T03:33:45.594Z,11.25
2022-10-28T03:38:50.819Z,12.65
2022-10-28T03:43:57.034Z,11.98
2022-10-28T03:49:00.866Z,11.52
2022-10-28T03:54:06.377Z,12.85
2022-10-28T03:59:14.065Z,11.57
2022-10-28T04:04:29.996Z,10.82
2022-10-28T04:09:36.225Z,10.30
2022-10-28T04:14:40.496Z,10.10
2022-10-28T04:19:44.682Z,10.50
2022-10-28T04:24:50.408Z,12.23
2022-10-28T04:29:54.252Z,12.65
2022-10-28T04:34:58.073Z,11.55
2022-10-28T04:40:04.298Z,10.85
2022-10-28T04:45:09.934Z,11.15
2022-10-28T04:50:13.785Z,11.40
2022-10-28T04:55:19.307Z,12.13
2022-10-28T05:00:23.242Z,11.63
2022-10-28T05:05:27.141Z,10.40
2022-10-28T05:10:32.656Z,10.90
2022-10-28T05:15:36.569Z,10.40
2022-10-28T05:20:40.524Z,11.18
2022-10-28T05:25:45.912Z,13.48
2022-10-28T05:30:49.960Z,9.63
2022-10-28T05:35:54.015Z,9.13
2022-10-28T05:40:59.256Z,9.98
2022-10-28T05:46:03.939Z,8.80
2022-10-28T05:51:07.852Z,9.32
2022-10-28T05:56:13.162Z,9.95
2022-10-28T06:01:17.377Z,9.80
2022-10-28T06:06:21.350Z,10.95
2022-10-28T06:11:25.053Z,9.00
2022-10-28T06:16:29.197Z,9.30
2022-10-28T06:21:33.208Z,11.82
2022-10-28T06:26:38.491Z,9.82
2022-10-28T06:31:42.962Z,8.60
2022-10-28T06:36:47.055Z,8.20
2022-10-28T06:41:52.539Z,8.88
2022-10-28T06:46:57.952Z,7.75
2022-10-28T06:52:02.004Z,8.25
2022-10-28T06:57:07.326Z,7.57
2022-10-28T07:02:12.244Z,6.25
2022-10-28T07:07:16.368Z,7.17
2022-10-28T07:12:22.006Z,7.28
2022-10-28T07:17:26.116Z,6.30
2022-10-28T07:22:29.990Z,7.20
2022-10-28T07:27:35.335Z,6.18
2022-10-28T07:32:39.323Z,6.78
2022-10-28T07:37:43.331Z,6.00
2022-10-28T07:42:48.728Z,5.93
2022-10-28T07:47:53.238Z,7.72
2022-10-28T07:52:57.335Z,5.63
2022-10-28T07:58:02.717Z,5.00
2022-10-28T08:03:06.878Z,5.85
2022-10-28T08:08:11.029Z,4.80
2022-10-28T08:13:16.323Z,5.90
2022-10-28T08:18:20.522Z,5.32
2022-10-28T08:23:24.416Z,6.00
2022-10-28T08:28:30.055Z,4.10
2022-10-28T08:33:33.947Z,4.15
2022-10-28T08:38:41.642Z,4.88
2022-10-28T08:44:03.257Z,4.22
2022-10-28T08:49:19.813Z,3.53
2022-10-28T08:54:28.706Z,4.28
2022-10-28T08:59:39.043Z,3.90
2022-10-28T09:04:44.733Z,3.80
2022-10-28T09:09:51.333Z,3.85
2022-10-28T09:15:14.328Z,3.85
2022-10-28T09:20:21.889Z,4.05
2022-10-28T09:25:33.530Z,4.43
2022-10-28T09:30:49.502Z,3.50
2022-10-28T09:35:54.870Z,3.63
2022-10-28T09:41:03.485Z,3.33
2022-10-28T09:46:13.492Z,3.65
2022-10-28T09:51:28.328Z,2.97
2022-10-28T09:56:35.800Z,2.90
2022-10-28T10:01:43.727Z,3.10
2022-10-28T10:06:50.713Z,2.55
2022-10-28T10:11:57.290Z,3.13
2022-10-28T10:17:06.564Z,2.30
2022-10-28T10:22:29.630Z,2.88
2022-10-28T10:27:33.656Z,3.63
2022-10-28T10:32:38.983Z,2.80
2022-10-28T10:37:45.411Z,3.10
2022-10-28T10:43:09.505Z,3.40
2022-10-28T10:48:18.785Z,2.90
2022-10-28T10:53:25.741Z,2.90
2022-10-28T10:58:32.259Z,3.45
2022-10-28T11:03:40.522Z,3.25
2022-10-28T11:08:47.511Z,3.22
2022-10-28T11:14:08.697Z,3.78
2022-10-28T11:19:22.348Z,3.60
2022-10-28T11:24:41.322Z,4.07
2022-10-28T11:29:46.956Z,2.60
2022-10-28T11:40:30.599Z,2.80
2022-10-28T11:45:39.938Z,2.88
2022-10-28T11:51:02.075Z,2.30
2022-10-28T11:56:23.851Z,3.03
2022-10-28T12:01:41.476Z,4.13
2022-10-28T12:07:02.321Z,4.18
2022-10-28T12:12:16.888Z,3.90
2022-10-28T12:17:27.707Z,3.28
2022-10-28T12:22:40.555Z,3.30
2022-10-28T12:27:48.845Z,2.95
2022-10-28T12:32:57.843Z,3.05
2022-10-28T12:38:10.200Z,3.15
2022-10-28T12:43:19.977Z,3.22
2022-10-28T12:48:32.698Z,3.42
2022-10-28T12:53:44.124Z,3.40
2022-10-28T12:58:56.294Z,3.13
2022-10-28T13:04:00.487Z,5.32
2022-10-28T13:09:33.322Z,4.45
2022-10-28T13:15:06.249Z,4.35
2022-10-28T13:20:20.804Z,5.00
2022-10-28T13:25:41.652Z,4.10
2022-10-28T13:30:57.702Z,4.65
2022-10-28T13:36:19.773Z,4.68
2022-10-28T13:41:40.868Z,4.43
2022-10-28T13:47:27.738Z,4.45
2022-10-28T13:52:31.780Z,5.10
2022-10-28T13:57:39.058Z,8.18
2022-10-28T14:02:47.690Z,7.28
2022-10-28T14:07:56.006Z,7.72
2022-10-28T14:13:04.557Z,8.70
2022-10-28T14:18:42.516Z,9.15
2022-10-28T14:24:34.061Z,8.77
2022-10-28T14:29:45.581Z,9.20
2022-10-28T14:34:50.469Z,10.05
2022-10-28T14:40:07.145Z,10.25
2022-10-28T14:45:26.621Z,8.80
2022-10-28T14:50:39.486Z,10.15
2022-10-28T14:55:48.547Z,10.15
2022-10-28T15:01:05.942Z,9.65
2022-10-28T15:06:32.661Z,10.63
2022-10-28T15:11:36.655Z,11.55
2022-10-28T15:16:49.458Z,10.77
2022-10-28T15:22:04.498Z,14.07
2022-10-28T15:27:12.698Z,14.53
2022-10-28T15:32:30.773Z,13.73
2022-10-28T15:37:37.460Z,14.50
2022-10-28T15:42:45.716Z,13.07
2022-10-28T15:47:51.133Z,12.93
2022-10-28T15:52:57.482Z,15.35
2022-10-28T15:58:04.117Z,17.52
2022-10-28T16:03:26.865Z,16.77
2022-10-28T16:08:32.440Z,17.67
2022-10-28T16:13:38.604Z,15.32
2022-10-28T16:18:47.332Z,14.65
2022-10-28T16:23:56.407Z,16.77
2022-10-28T16:29:00.331Z,17.60
2022-10-28T16:34:05.917Z,16.35
2022-10-28T16:39:13.105Z,17.42
2022-10-28T16:44:19.326Z,16.38
2022-10-28T16:49:24.774Z,18.50
2022-10-28T16:54:28.717Z,19.52
2022-10-28T16:59:32.524Z,18.70
2022-10-28T17:04:37.612Z,19.55
2022-10-28T17:09:41.498Z,17.83
2022-10-28T17:14:45.719Z,19.00
2022-10-28T17:19:50.780Z,21.15
2022-10-28T17:24:54.958Z,19.13
2022-10-28T17:29:59.037Z,19.70
2022-10-28T17:35:04.990Z,19.95
2022-10-28T17:40:11.122Z,18.42
2022-10-28T17:45:18.003Z,18.60
2022-10-28T17:50:26.335Z,17.75
2022-10-28T17:55:30.407Z,16.95
2022-10-28T18:00:34.220Z,17.98
2022-10-28T18:05:39.477Z,17.23
2022-10-28T18:10:52.416Z,17.80
2022-10-28T18:15:56.369Z,17.42
2022-10-28T18:21:02.009Z,18.83
2022-10-28T18:26:07.405Z,17.52
2022-10-28T18:31:15.696Z,17.77
2022-10-28T18:36:22.530Z,17.27
2022-10-28T18:41:28.565Z,16.50
2022-10-28T18:46:34.387Z,15.82
2022-10-28T18:51:39.648Z,15.48
2022-10-28T18:56:47.605Z,20.77
2022-10-28T19:01:52.584Z,16.15
2022-10-28T19:06:57.790Z,16.02
2022-10-28T19:12:01.879Z,17.25
2022-10-28T19:17:05.682Z,17.95
2022-10-28T19:22:11.894Z,13.35
2022-10-28T19:27:15.634Z,14.18
2022-10-28T19:32:19.426Z,15.48
2022-10-28T19:37:25.256Z,15.88
2022-10-28T19:47:33.326Z,15.15
2022-10-28T19:52:38.623Z,14.45
2022-10-28T19:57:42.543Z,14.23
2022-10-28T20:02:48.306Z,13.02
2022-10-28T20:12:58.550Z,13.52
2022-10-28T20:18:02.350Z,14.20
2022-10-28T20:23:07.504Z,14.20
2022-10-28T20:28:11.366Z,13.90
2022-10-28T20:33:15.129Z,13.23
2022-10-28T20:38:20.586Z,13.05
2022-10-28T20:43:28.926Z,12.55
2022-10-28T20:48:32.848Z,11.73
2022-10-28T20:53:38.411Z,11.38
2022-10-28T20:58:42.191Z,11.18
2022-10-28T21:03:46.616Z,11.57
2022-10-28T21:08:51.854Z,10.88
2022-10-28T21:13:58.613Z,10.93
2022-10-28T21:19:02.934Z,8.82
2022-10-28T21:24:08.892Z,9.05
2022-10-28T21:34:16.201Z,8.63
2022-10-28T21:39:21.283Z,8.43
2022-10-28T21:44:25.142Z,8.43
2022-10-28T21:49:29.270Z,7.65
2022-10-28T21:54:35.033Z,10.85
2022-10-28T22:04:42.726Z,7.03
2022-10-28T22:09:47.877Z,6.90
2022-10-28T22:14:51.592Z,7.32
2022-10-28T22:19:55.406Z,7.28
2022-10-28T22:25:01.287Z,6.50
2022-10-28T22:30:07.425Z,6.30
2022-10-28T22:35:11.257Z,6.40
2022-10-28T22:40:16.608Z,6.10
2022-10-28T22:45:20.447Z,5.85
2022-10-28T22:50:24.162Z,5.38
2022-10-28T22:55:29.278Z,5.13
2022-10-28T23:00:33.499Z,4.55
2022-10-28T23:05:37.497Z,4.53
2022-10-28T23:10:42.790Z,4.95
2022-10-28T23:15:46.611Z,4.60
2022-10-28T23:20:50.420Z,4.25
2022-10-28T23:25:57.301Z,3.97
2022-10-28T23:31:01.889Z,3.58
2022-10-28T23:36:06.385Z,4.18
2022-10-28T23:41:14.621Z,4.40
2022-10-28T23:46:19.771Z,3.67
2022-10-28T23:51:23.812Z,3.97
2022-10-28T23:56:29.084Z,4.43
